Terminal Aerodrome Forecast
Issued by NWS

Home | Current Version | Previous Version | Text Only | Print | Product List | Glossary On
Versions: 1 2 3 4 5 6 7 8 9 10 11 12 13 14 15 16 17 18 19 20 21
789
FTUS43 KDLH 260630 AAA
TAFHIB
TAF AMD
KHIB 260630Z 2607/2706 VRB02KT 5SM BR SCT070
      TEMPO 2606/2608 1/2SM FG SCT004
     FM260800 VRB02KT 6SM BR VCSH BKN070
      TEMPO 2608/2611 1/2SM FG
     FM261300 28008KT P6SM VCSH SCT040 BKN080
     FM261800 30008KT P6SM VCTS SCT050CB BKN100
     FM270200 28007KT P6SM VCSH BKN060=

USA.gov is the U.S. government's official web portal to all federal, state and local government web resources and services.